Share

Glendive, MT

Dawson Community (KGDV) Elev 2457 ft | 47.14 °N, 104.81 °W | Change Station

Current weather conditions updated 21 minutes ago

Clear
Clear
57 °F
Feels Like 57 °F
N
22
Wind Variable Wind from WNW
Gusts 28 mph
Sunrise 6:01 AM
Sunset 7:54 PM
Moon Waning Gibbous

Today is forecast to be nearly the same temperature as yesterday.

Pressure 29.91 in
Visibility 10.0 miles
Clouds Clear
Dew Point 30 °F
Humidity 36%
Rainfall 0.00 in
Snow Depth Not available.
UV 4 out of 16
Pollen 10.60 out of 12
Air Quality Not available.
Flu Activity Sporadic
METAR KGDV 201535Z AUTO 29019G24KT 10SM CLR 14/M01 A2991 RMK AO1

More Conditions Fewer Conditions

Pressure 29.91 in
Visibility 10.0 miles
Clouds Clear
Dew Point 30 °F
Humidity 36%
Rainfall 0.00 in
Snow Depth Not available.
UV 4 out of 16
Pollen 10.60 out of 12
Air Quality Not available.
Flu Activity Sporadic
METAR KGDV 201535Z AUTO 29019G24KT 10SM CLR 14/M01 A2991 RMK AO1

More Conditions Fewer Conditions

10-Day Weather Forecast

Almanac

Astronomy

Apr. 20, 2014 Rise Set
Actual Time 6:01 AM MDT 7:54 PM MDT
Civil Twilight 5:29 AM MDT 8:27 PM MDT
Nautical Twilight 4:49 AM MDT 9:07 PM MDT
Astronomical Twilight 4:05 AM MDT 9:51 PM MDT
Moon 12:44 AM MDT 10:17 AM MDT
Length of Visible Light 14h 58m
Length of Day
13h 53m
Tomorrow will be 3m 10s longer.
Waning Gibbous, 69% of the Moon is Illuminated
Today
Waning Gibbous
Apr 22
Last Quarter
Apr 29
New
May 6
First Quarter
May 14
Full

Today's Extremes

State Highs State Lows

Community

  • Easter Sunrise
    Easter Sunrise
  • Easter Eve - The Promise - Lake Palestine, TX
    Easter Eve - The Promise - Lake Palestine, TX
  • Happy Easter
    Happy Easter
  • EARLY FOGGY MORNING
    EARLY FOGGY MORNING
  • Easter Greetings
    Easter Greetings

WunderPhotos

Upload Photos

1,703,259 photos uploaded!

WunderBlogs® & News

Nearby

Snow Depth

Station Depth Elevation
Crystal Lake 56 in 6050 ft
Rocky Boy 5 in 4700 ft
Cole Creek 74 in 7850 ft
Burnt Mountain 27 in 5880 ft
Daisy Peak 49 in 7600 ft

Coastal Water Temperatures

Place Temperature
No Stations Reporting

Earthquake Activity

City Distance Mag. Time & Date
No recent earthquake activity has been reported nearby.
Minimum magnitude displayed is 2.5.

Nearby Weather Stations

Station Location Temp. Windchill Dew Point Humidity Wind Precip. Elev Updated Type
MesoWest BUFFALO RAPIDS/GLEND , Glendive, MT 44 °F 44 °F 34 °F 69% SSE  at  - 0.00 in / hr 2140 ft 8:45 AM MDT MADIS
SE Bloomfield, Bloomfield, MT 56.7 °F - 30 °F 36% NW  at  27.0 mph 0.00 in / hr 2753 ft 9:56 AM MDT Rapid Fire
MesoWest LINDSAY 1 , Lindsay, MT 55 °F - 25 °F 32% West  at  20 mph 0.00 in / hr 2680 ft 9:00 AM MDT MADIS
RAWS PINE HILL MT, Mildred, MT 55 °F - 35 °F 47% West  at  7 mph 0.00 in / hr 2648 ft 9:24 AM MDT MADIS

Show More Stations Show Fewer Stations

What do you think?

We're not finished. Please let us know what you like, what you don't like, and what you are still missing.